PWSweather.com
Personal Weather Stations
Station Observations
ITROMSHA6
HarstadNO 9407

HarstadNO 9407

Lat: 68.7814767, Lon: 16.5297091

Elevation: 145

Station Type: Davis Vantage Pro2

High Low Average
Temperature 36.6°F2.6°C 32.1°F0.1°C 34.4°F1.3°C
Dew Point 28.9°F-1.7°C 16.7°F-8.5°C 23.8°F-4.6°C
Winds 21.0 mph 33.8 kmh 2.0 mph 3.2 kmh 10.0 mph NE16.1 kmh NE
Wind Gusts 25.0 mph40.2 kmh -- 3.0 mph4.8 kmh
Humidity 87% 44% 66%
Pressure 29.68 in1005.1 mb 29.56 in1001.0 mb -
Precipitation 0.00 in0.0 mm - -
Hour Temp Dew Point Humidity Winds Wind Gusts Pressure Precip Precip Rate Daily Precip Total
12:00 AM 34.1°F1.2°C 27.7°F-2.4°C 77% 10.0 mph NNE16.1 kmh NNE -- 29.59 in1002.0 mb 0.00 in0.0 mm 0.00 in0.0 mm 0.00 in0.0 mm
12:05 AM 34.1°F1.2°C 27.7°F-2.4°C 77% 13.0 mph NE20.9 kmh NE 17.0 mph27.4 kmh 29.59 in1002.0 mb 0.00 in0.0 mm 0.00 in0.0 mm 0.00 in0.0 mm
12:10 AM 33.9°F1.1°C 27.5°F-2.5°C 77% 9.0 mph N14.5 kmh N -- 29.59 in1002.0 mb 0.00 in0.0 mm 0.00 in0.0 mm 0.00 in0.0 mm
12:15 AM 34.0°F1.1°C 27.5°F-2.5°C 77% 8.0 mph NE12.9 kmh NE -- 29.58 in1001.7 mb 0.00 in0.0 mm 0.00 in0.0 mm 0.00 in0.0 mm
12:20 AM 33.9°F1.1°C 27.5°F-2.5°C 77% 11.0 mph NNE17.7 kmh NNE -- 29.58 in1001.7 mb 0.00 in0.0 mm 0.00 in0.0 mm 0.00 in0.0 mm
12:25 AM 33.8°F1.0°C 27.3°F-2.6°C 77% 7.0 mph NE11.3 kmh NE -- 29.58 in1001.7 mb 0.00 in0.0 mm 0.00 in0.0 mm 0.00 in0.0 mm
12:30 AM 33.9°F1.1°C 27.9°F-2.3°C 78% 10.0 mph NE16.1 kmh NE 19.0 mph30.6 kmh 29.58 in1001.7 mb 0.00 in0.0 mm 0.00 in0.0 mm 0.00 in0.0 mm
12:35 AM 33.9°F1.1°C 27.9°F-2.3°C 78% 8.0 mph NNE12.9 kmh NNE -- 29.58 in1001.7 mb 0.00 in0.0 mm 0.00 in0.0 mm 0.00 in0.0 mm
12:40 AM 33.8°F1.0°C 27.7°F-2.4°C 78% 10.0 mph NNE16.1 kmh NNE -- 29.58 in1001.7 mb 0.00 in0.0 mm 0.00 in0.0 mm 0.00 in0.0 mm
12:45 AM 33.8°F1.0°C 28.0°F-2.2°C 79% 10.0 mph NNE16.1 kmh NNE -- 29.58 in1001.7 mb 0.00 in0.0 mm 0.00 in0.0 mm 0.00 in0.0 mm
12:50 AM 33.7°F0.9°C 27.9°F-2.3°C 79% 4.0 mph NE6.4 kmh NE -- 29.58 in1001.7 mb 0.00 in0.0 mm 0.00 in0.0 mm 0.00 in0.0 mm
12:55 AM 33.6°F0.9°C 27.9°F-2.3°C 79% 6.0 mph ENE9.7 kmh ENE 16.0 mph25.7 kmh 29.58 in1001.7 mb 0.00 in0.0 mm 0.00 in0.0 mm 0.00 in0.0 mm
01:00 AM 33.5°F0.8°C 27.7°F-2.4°C 79% 10.0 mph NE16.1 kmh NE -- 29.58 in1001.7 mb 0.00 in0.0 mm 0.00 in0.0 mm 0.00 in0.0 mm
01:05 AM 33.4°F0.8°C 27.7°F-2.4°C 79% 7.0 mph ENE11.3 kmh ENE -- 29.58 in1001.7 mb 0.00 in0.0 mm 0.00 in0.0 mm 0.00 in0.0 mm
01:10 AM 33.3°F0.7°C 27.5°F-2.5°C 79% 10.0 mph NE16.1 kmh NE -- 29.58 in1001.7 mb 0.00 in0.0 mm 0.00 in0.0 mm 0.00 in0.0 mm
01:15 AM 33.2°F0.7°C 27.9°F-2.3°C 80% 16.0 mph NE25.7 kmh NE -- 29.57 in1001.4 mb 0.00 in0.0 mm 0.00 in0.0 mm 0.00 in0.0 mm
01:20 AM 33.3°F0.7°C 28.0°F-2.2°C 81% 6.0 mph NE9.7 kmh NE 18.0 mph29.0 kmh 29.57 in1001.4 mb 0.00 in0.0 mm 0.00 in0.0 mm 0.00 in0.0 mm
01:25 AM 33.0°F0.6°C 27.9°F-2.3°C 81% 10.0 mph ENE16.1 kmh ENE -- 29.57 in1001.4 mb 0.00 in0.0 mm 0.00 in0.0 mm 0.00 in0.0 mm
01:30 AM 32.7°F0.4°C 27.9°F-2.3°C 82% 11.0 mph NE17.7 kmh NE -- 29.57 in1001.4 mb 0.00 in0.0 mm 0.00 in0.0 mm 0.00 in0.0 mm
01:35 AM 32.6°F0.3°C 28.2°F-2.1°C 84% 13.0 mph NE20.9 kmh NE -- 29.57 in1001.4 mb 0.00 in0.0 mm 0.00 in0.0 mm 0.00 in0.0 mm
01:40 AM 32.3°F0.2°C 28.4°F-2.0°C 85% 5.0 mph N8.0 kmh N -- 29.57 in1001.4 mb 0.00 in0.0 mm 0.00 in0.0 mm 0.00 in0.0 mm
01:45 AM 32.1°F0.1°C 28.4°F-2.0°C 86% 12.0 mph NE19.3 kmh NE 20.0 mph32.2 kmh 29.57 in1001.4 mb 0.00 in0.0 mm 0.00 in0.0 mm 0.00 in0.0 mm
01:50 AM 32.1°F0.1°C 28.8°F-1.8°C 87% 7.0 mph NE11.3 kmh NE -- 29.57 in1001.4 mb 0.00 in0.0 mm 0.00 in0.0 mm 0.00 in0.0 mm
01:55 AM 32.2°F0.1°C 28.8°F-1.8°C 87% 7.0 mph NE11.3 kmh NE -- 29.57 in1001.4 mb 0.00 in0.0 mm 0.00 in0.0 mm 0.00 in0.0 mm
02:00 AM 32.2°F0.1°C 28.8°F-1.8°C 87% 7.0 mph NE11.3 kmh NE -- 29.57 in1001.4 mb 0.00 in0.0 mm 0.00 in0.0 mm 0.00 in0.0 mm
02:05 AM 32.3°F0.2°C 28.9°F-1.7°C 87% 10.0 mph NNE16.1 kmh NNE -- 29.57 in1001.4 mb 0.00 in0.0 mm 0.00 in0.0 mm 0.00 in0.0 mm
02:10 AM 32.2°F0.1°C 28.8°F-1.8°C 87% 7.0 mph NE11.3 kmh NE 16.0 mph25.7 kmh 29.57 in1001.4 mb 0.00 in0.0 mm 0.00 in0.0 mm 0.00 in0.0 mm
02:15 AM 32.1°F0.1°C 28.8°F-1.8°C 87% 6.0 mph NE9.7 kmh NE -- 29.57 in1001.4 mb 0.00 in0.0 mm 0.00 in0.0 mm 0.00 in0.0 mm
02:20 AM 32.2°F0.1°C 28.8°F-1.8°C 87% 9.0 mph NE14.5 kmh NE -- 29.57 in1001.4 mb 0.00 in0.0 mm 0.00 in0.0 mm 0.00 in0.0 mm
02:25 AM 32.2°F0.1°C 28.8°F-1.8°C 87% 5.0 mph NNE8.0 kmh NNE -- 29.57 in1001.4 mb 0.00 in0.0 mm 0.00 in0.0 mm 0.00 in0.0 mm
02:30 AM 32.2°F0.1°C 28.8°F-1.8°C 87% 9.0 mph NE14.5 kmh NE -- 29.57 in1001.4 mb 0.00 in0.0 mm 0.00 in0.0 mm 0.00 in0.0 mm
02:35 AM 32.3°F0.2°C 28.9°F-1.7°C 87% 10.0 mph NE16.1 kmh NE 14.0 mph22.5 kmh 29.57 in1001.4 mb 0.00 in0.0 mm 0.00 in0.0 mm 0.00 in0.0 mm
02:40 AM 32.1°F0.1°C 28.8°F-1.8°C 87% 10.0 mph NE16.1 kmh NE -- 29.57 in1001.4 mb 0.00 in0.0 mm 0.00 in0.0 mm 0.00 in0.0 mm
02:45 AM 32.1°F0.1°C 28.8°F-1.8°C 87% 10.0 mph ENE16.1 kmh ENE -- 29.57 in1001.4 mb 0.00 in0.0 mm 0.00 in0.0 mm 0.00 in0.0 mm
02:50 AM 32.1°F0.1°C 28.8°F-1.8°C 87% 11.0 mph NE17.7 kmh NE -- 29.57 in1001.4 mb 0.00 in0.0 mm 0.00 in0.0 mm 0.00 in0.0 mm
02:55 AM 32.1°F0.1°C 28.8°F-1.8°C 87% 6.0 mph NE9.7 kmh NE -- 29.56 in1001.0 mb 0.00 in0.0 mm 0.00 in0.0 mm 0.00 in0.0 mm
03:00 AM 32.2°F0.1°C 28.8°F-1.8°C 87% 10.0 mph NE16.1 kmh NE 17.0 mph27.4 kmh 29.56 in1001.0 mb 0.00 in0.0 mm 0.00 in0.0 mm 0.00 in0.0 mm
03:05 AM 32.4°F0.2°C 28.9°F-1.7°C 87% 3.0 mph NNE4.8 kmh NNE -- 29.56 in1001.0 mb 0.00 in0.0 mm 0.00 in0.0 mm 0.00 in0.0 mm
03:10 AM 32.5°F0.3°C 28.8°F-1.8°C 86% 7.0 mph ENE11.3 kmh ENE -- 29.56 in1001.0 mb 0.00 in0.0 mm 0.00 in0.0 mm 0.00 in0.0 mm
03:15 AM 32.4°F0.2°C 28.4°F-2.0°C 85% 12.0 mph NE19.3 kmh NE -- 29.56 in1001.0 mb 0.00 in0.0 mm 0.00 in0.0 mm 0.00 in0.0 mm
03:20 AM 32.6°F0.3°C 28.6°F-1.9°C 85% 12.0 mph NE19.3 kmh NE -- 29.56 in1001.0 mb 0.00 in0.0 mm 0.00 in0.0 mm 0.00 in0.0 mm
03:25 AM 32.5°F0.3°C 28.6°F-1.9°C 85% 11.0 mph NE17.7 kmh NE 19.0 mph30.6 kmh 29.56 in1001.0 mb 0.00 in0.0 mm 0.00 in0.0 mm 0.00 in0.0 mm
03:30 AM 32.6°F0.3°C 28.6°F-1.9°C 85% 12.0 mph NE19.3 kmh NE -- 29.57 in1001.4 mb 0.00 in0.0 mm 0.00 in0.0 mm 0.00 in0.0 mm
03:35 AM 32.7°F0.4°C 28.8°F-1.8°C 85% 5.0 mph NE8.0 kmh NE -- 29.57 in1001.4 mb 0.00 in0.0 mm 0.00 in0.0 mm 0.00 in0.0 mm
03:40 AM 32.7°F0.4°C 28.4°F-2.0°C 84% 10.0 mph NE16.1 kmh NE -- 29.57 in1001.4 mb 0.00 in0.0 mm 0.00 in0.0 mm 0.00 in0.0 mm
03:45 AM 32.7°F0.4°C 28.4°F-2.0°C 84% 8.0 mph NE12.9 kmh NE -- 29.57 in1001.4 mb 0.00 in0.0 mm 0.00 in0.0 mm 0.00 in0.0 mm
03:50 AM 32.7°F0.4°C 28.2°F-2.1°C 83% 10.0 mph NE16.1 kmh NE 16.0 mph25.7 kmh 29.57 in1001.4 mb 0.00 in0.0 mm 0.00 in0.0 mm 0.00 in0.0 mm
03:55 AM 32.7°F0.4°C 28.2°F-2.1°C 83% 11.0 mph NE17.7 kmh NE -- 29.56 in1001.0 mb 0.00 in0.0 mm 0.00 in0.0 mm 0.00 in0.0 mm
04:00 AM 32.7°F0.4°C 27.9°F-2.3°C 82% 9.0 mph NNE14.5 kmh NNE -- 29.57 in1001.4 mb 0.00 in0.0 mm 0.00 in0.0 mm 0.00 in0.0 mm
04:05 AM 32.6°F0.3°C 27.7°F-2.4°C 82% 11.0 mph ENE17.7 kmh ENE -- 29.57 in1001.4 mb 0.00 in0.0 mm 0.00 in0.0 mm 0.00 in0.0 mm
04:10 AM 32.7°F0.4°C 27.9°F-2.3°C 82% 5.0 mph NE8.0 kmh NE -- 29.56 in1001.0 mb 0.00 in0.0 mm 0.00 in0.0 mm 0.00 in0.0 mm
04:15 AM 32.8°F0.4°C 27.5°F-2.5°C 81% 7.0 mph NE11.3 kmh NE 14.0 mph22.5 kmh 29.57 in1001.4 mb 0.00 in0.0 mm 0.00 in0.0 mm 0.00 in0.0 mm
04:20 AM 32.9°F0.5°C 27.5°F-2.5°C 80% 12.0 mph NE19.3 kmh NE -- 29.57 in1001.4 mb 0.00 in0.0 mm 0.00 in0.0 mm 0.00 in0.0 mm
04:25 AM 33.0°F0.6°C 27.3°F-2.6°C 79% 10.0 mph NE16.1 kmh NE -- 29.57 in1001.4 mb 0.00 in0.0 mm 0.00 in0.0 mm 0.00 in0.0 mm
04:30 AM 33.0°F0.6°C 27.3°F-2.6°C 79% 12.0 mph N19.3 kmh N -- 29.57 in1001.4 mb 0.00 in0.0 mm 0.00 in0.0 mm 0.00 in0.0 mm
04:35 AM 33.0°F0.6°C 27.7°F-2.4°C 80% 6.0 mph ENE9.7 kmh ENE -- 29.57 in1001.4 mb 0.00 in0.0 mm 0.00 in0.0 mm 0.00 in0.0 mm
04:40 AM 32.8°F0.4°C 27.3°F-2.6°C 80% 8.0 mph NE12.9 kmh NE 16.0 mph25.7 kmh 29.57 in1001.4 mb 0.00 in0.0 mm 0.00 in0.0 mm 0.00 in0.0 mm
04:45 AM 32.9°F0.5°C 27.5°F-2.5°C 80% 12.0 mph NE19.3 kmh NE -- 29.57 in1001.4 mb 0.00 in0.0 mm 0.00 in0.0 mm 0.00 in0.0 mm
04:50 AM 32.9°F0.5°C 27.5°F-2.5°C 80% 11.0 mph NE17.7 kmh NE -- 29.57 in1001.4 mb 0.00 in0.0 mm 0.00 in0.0 mm 0.00 in0.0 mm
04:55 AM 33.1°F0.6°C 27.3°F-2.6°C 79% 4.0 mph ENE6.4 kmh ENE -- 29.57 in1001.4 mb 0.00 in0.0 mm 0.00 in0.0 mm 0.00 in0.0 mm
05:00 AM 33.1°F0.6°C 27.3°F-2.6°C 79% 6.0 mph NE9.7 kmh NE -- 29.57 in1001.4 mb 0.00 in0.0 mm 0.00 in0.0 mm 0.00 in0.0 mm
05:05 AM 33.2°F0.7°C 27.5°F-2.5°C 79% 12.0 mph ENE19.3 kmh ENE 17.0 mph27.4 kmh 29.57 in1001.4 mb 0.00 in0.0 mm 0.00 in0.0 mm 0.00 in0.0 mm
05:10 AM 33.1°F0.6°C 27.3°F-2.6°C 79% 12.0 mph ENE19.3 kmh ENE -- 29.57 in1001.4 mb 0.00 in0.0 mm 0.00 in0.0 mm 0.00 in0.0 mm
05:15 AM 33.1°F0.6°C 27.0°F-2.8°C 78% 11.0 mph NE17.7 kmh NE -- 29.57 in1001.4 mb 0.00 in0.0 mm 0.00 in0.0 mm 0.00 in0.0 mm
05:20 AM 33.2°F0.7°C 27.1°F-2.7°C 78% 13.0 mph NE20.9 kmh NE -- 29.57 in1001.4 mb 0.00 in0.0 mm 0.00 in0.0 mm 0.00 in0.0 mm
05:25 AM 33.3°F0.7°C 27.1°F-2.7°C 78% 11.0 mph NE17.7 kmh NE -- 29.57 in1001.4 mb 0.00 in0.0 mm 0.00 in0.0 mm 0.00 in0.0 mm
05:30 AM 33.3°F0.7°C 27.1°F-2.7°C 78% 10.0 mph ENE16.1 kmh ENE 18.0 mph29.0 kmh 29.57 in1001.4 mb 0.00 in0.0 mm 0.00 in0.0 mm 0.00 in0.0 mm
05:35 AM 33.3°F0.7°C 27.1°F-2.7°C 78% 5.0 mph ENE8.0 kmh ENE -- 29.57 in1001.4 mb 0.00 in0.0 mm 0.00 in0.0 mm 0.00 in0.0 mm
05:40 AM 33.3°F0.7°C 26.8°F-2.9°C 77% 12.0 mph NE19.3 kmh NE -- 29.57 in1001.4 mb 0.00 in0.0 mm 0.00 in0.0 mm 0.00 in0.0 mm
05:45 AM 33.3°F0.7°C 26.8°F-2.9°C 77% 7.0 mph NE11.3 kmh NE -- 29.57 in1001.4 mb 0.00 in0.0 mm 0.00 in0.0 mm 0.00 in0.0 mm
05:50 AM 33.3°F0.7°C 26.6°F-3.0°C 76% 8.0 mph ENE12.9 kmh ENE -- 29.57 in1001.4 mb 0.00 in0.0 mm 0.00 in0.0 mm 0.00 in0.0 mm
05:55 AM 33.3°F0.7°C 26.6°F-3.0°C 76% 6.0 mph NE9.7 kmh NE 13.0 mph20.9 kmh 29.57 in1001.4 mb 0.00 in0.0 mm 0.00 in0.0 mm 0.00 in0.0 mm
06:00 AM 33.3°F0.7°C 26.6°F-3.0°C 76% 12.0 mph NNE19.3 kmh NNE -- 29.57 in1001.4 mb 0.00 in0.0 mm 0.00 in0.0 mm 0.00 in0.0 mm
06:05 AM 33.3°F0.7°C 26.2°F-3.2°C 75% 12.0 mph NE19.3 kmh NE -- 29.57 in1001.4 mb 0.00 in0.0 mm 0.00 in0.0 mm 0.00 in0.0 mm
06:10 AM 33.4°F0.8°C 26.4°F-3.1°C 75% 10.0 mph NE16.1 kmh NE -- 29.57 in1001.4 mb 0.00 in0.0 mm 0.00 in0.0 mm 0.00 in0.0 mm
06:15 AM 33.4°F0.8°C 26.1°F-3.3°C 74% 12.0 mph NE19.3 kmh NE -- 29.57 in1001.4 mb 0.00 in0.0 mm 0.00 in0.0 mm 0.00 in0.0 mm
06:20 AM 33.4°F0.8°C 26.1°F-3.3°C 74% 9.0 mph NE14.5 kmh NE 16.0 mph25.7 kmh 29.57 in1001.4 mb 0.00 in0.0 mm 0.00 in0.0 mm 0.00 in0.0 mm
06:25 AM 33.4°F0.8°C 25.7°F-3.5°C 73% 7.0 mph ENE11.3 kmh ENE -- 29.57 in1001.4 mb 0.00 in0.0 mm 0.00 in0.0 mm 0.00 in0.0 mm
06:30 AM 33.5°F0.8°C 25.7°F-3.5°C 73% 8.0 mph NE12.9 kmh NE -- 29.57 in1001.4 mb 0.00 in0.0 mm 0.00 in0.0 mm 0.00 in0.0 mm
06:35 AM 33.5°F0.8°C 25.3°F-3.7°C 72% 8.0 mph NE12.9 kmh NE -- 29.57 in1001.4 mb 0.00 in0.0 mm 0.00 in0.0 mm 0.00 in0.0 mm
06:40 AM 33.5°F0.8°C 25.3°F-3.7°C 72% 7.0 mph NE11.3 kmh NE -- 29.57 in1001.4 mb 0.00 in0.0 mm 0.00 in0.0 mm 0.00 in0.0 mm
06:45 AM 33.8°F1.0°C 25.7°F-3.5°C 72% 7.0 mph NE11.3 kmh NE 17.0 mph27.4 kmh 29.57 in1001.4 mb 0.00 in0.0 mm 0.00 in0.0 mm 0.00 in0.0 mm
06:50 AM 33.8°F1.0°C 25.7°F-3.5°C 72% 8.0 mph NE12.9 kmh NE -- 29.57 in1001.4 mb 0.00 in0.0 mm 0.00 in0.0 mm 0.00 in0.0 mm
06:55 AM 33.8°F1.0°C 25.7°F-3.5°C 72% 7.0 mph NE11.3 kmh NE -- 29.57 in1001.4 mb 0.00 in0.0 mm 0.00 in0.0 mm 0.00 in0.0 mm
07:00 AM 33.8°F1.0°C 25.7°F-3.5°C 72% 13.0 mph NE20.9 kmh NE -- 29.57 in1001.4 mb 0.00 in0.0 mm 0.00 in0.0 mm 0.00 in0.0 mm
07:05 AM 33.7°F0.9°C 25.5°F-3.6°C 72% 10.0 mph NE16.1 kmh NE -- 29.57 in1001.4 mb 0.00 in0.0 mm 0.00 in0.0 mm 0.00 in0.0 mm
07:10 AM 33.7°F0.9°C 25.2°F-3.8°C 71% 6.0 mph ENE9.7 kmh ENE 16.0 mph25.7 kmh 29.57 in1001.4 mb 0.00 in0.0 mm 0.00 in0.0 mm 0.00 in0.0 mm
07:15 AM 33.8°F1.0°C 25.7°F-3.5°C 72% 10.0 mph NE16.1 kmh NE -- 29.57 in1001.4 mb 0.00 in0.0 mm 0.00 in0.0 mm 0.00 in0.0 mm
07:20 AM 33.9°F1.1°C 25.5°F-3.6°C 71% 9.0 mph NNE14.5 kmh NNE -- 29.57 in1001.4 mb 0.00 in0.0 mm 0.00 in0.0 mm 0.00 in0.0 mm
07:25 AM 33.9°F1.1°C 25.5°F-3.6°C 71% 10.0 mph NE16.1 kmh NE -- 29.57 in1001.4 mb 0.00 in0.0 mm 0.00 in0.0 mm 0.00 in0.0 mm
07:30 AM 34.1°F1.2°C 25.7°F-3.5°C 71% 8.0 mph NE12.9 kmh NE -- 29.57 in1001.4 mb 0.00 in0.0 mm 0.00 in0.0 mm 0.00 in0.0 mm
07:35 AM 34.1°F1.2°C 25.3°F-3.7°C 70% 12.0 mph NE19.3 kmh NE 15.0 mph24.1 kmh 29.57 in1001.4 mb 0.00 in0.0 mm 0.00 in0.0 mm 0.00 in0.0 mm
07:40 AM 33.9°F1.1°C 25.0°F-3.9°C 69% 9.0 mph NE14.5 kmh NE -- 29.57 in1001.4 mb 0.00 in0.0 mm 0.00 in0.0 mm 0.00 in0.0 mm
07:45 AM 34.0°F1.1°C 24.6°F-4.1°C 68% 11.0 mph NE17.7 kmh NE -- 29.57 in1001.4 mb 0.00 in0.0 mm 0.00 in0.0 mm 0.00 in0.0 mm
07:50 AM 34.2°F1.2°C 24.4°F-4.2°C 67% 10.0 mph NE16.1 kmh NE -- 29.57 in1001.4 mb 0.00 in0.0 mm 0.00 in0.0 mm 0.00 in0.0 mm
07:55 AM 34.3°F1.3°C 24.3°F-4.3°C 66% 6.0 mph NE9.7 kmh NE -- 29.57 in1001.4 mb 0.00 in0.0 mm 0.00 in0.0 mm 0.00 in0.0 mm
08:00 AM 34.2°F1.2°C 24.8°F-4.0°C 68% 10.0 mph NE16.1 kmh NE 18.0 mph29.0 kmh 29.57 in1001.4 mb 0.00 in0.0 mm 0.00 in0.0 mm 0.00 in0.0 mm
08:05 AM 34.4°F1.3°C 25.0°F-3.9°C 68% 16.0 mph NE25.7 kmh NE -- 29.57 in1001.4 mb 0.00 in0.0 mm 0.00 in0.0 mm 0.00 in0.0 mm
08:10 AM 34.4°F1.3°C 25.5°F-3.6°C 70% 8.0 mph NNE12.9 kmh NNE -- 29.57 in1001.4 mb 0.00 in0.0 mm 0.00 in0.0 mm 0.00 in0.0 mm
08:15 AM 34.4°F1.3°C 25.5°F-3.6°C 70% 11.0 mph N17.7 kmh N -- 29.57 in1001.4 mb 0.00 in0.0 mm 0.00 in0.0 mm 0.00 in0.0 mm
08:20 AM 34.4°F1.3°C 25.9°F-3.4°C 71% 11.0 mph NE17.7 kmh NE -- 29.57 in1001.4 mb 0.00 in0.0 mm 0.00 in0.0 mm 0.00 in0.0 mm
08:25 AM 34.4°F1.3°C 25.2°F-3.8°C 69% 11.0 mph NE17.7 kmh NE 18.0 mph29.0 kmh 29.57 in1001.4 mb 0.00 in0.0 mm 0.00 in0.0 mm 0.00 in0.0 mm
08:30 AM 34.4°F1.3°C 25.2°F-3.8°C 69% 14.0 mph NE22.5 kmh NE -- 29.57 in1001.4 mb 0.00 in0.0 mm 0.00 in0.0 mm 0.00 in0.0 mm
08:35 AM 34.6°F1.4°C 25.0°F-3.9°C 68% 9.0 mph NE14.5 kmh NE -- 29.57 in1001.4 mb 0.00 in0.0 mm 0.00 in0.0 mm 0.00 in0.0 mm
08:40 AM 34.6°F1.4°C 25.3°F-3.7°C 69% 8.0 mph NE12.9 kmh NE -- 29.57 in1001.4 mb 0.00 in0.0 mm 0.00 in0.0 mm 0.00 in0.0 mm
08:45 AM 34.7°F1.5°C 24.4°F-4.2°C 66% 6.0 mph NE9.7 kmh NE -- 29.57 in1001.4 mb 0.00 in0.0 mm 0.00 in0.0 mm 0.00 in0.0 mm
08:50 AM 34.9°F1.6°C 24.6°F-4.1°C 66% 11.0 mph NE17.7 kmh NE 16.0 mph25.7 kmh 29.57 in1001.4 mb 0.00 in0.0 mm 0.00 in0.0 mm 0.00 in0.0 mm
08:55 AM 34.9°F1.6°C 25.0°F-3.9°C 67% 8.0 mph NE12.9 kmh NE -- 29.57 in1001.4 mb 0.00 in0.0 mm 0.00 in0.0 mm 0.00 in0.0 mm
09:00 AM 34.9°F1.6°C 24.3°F-4.3°C 65% 8.0 mph NE12.9 kmh NE -- 29.57 in1001.4 mb 0.00 in0.0 mm 0.00 in0.0 mm 0.00 in0.0 mm
09:05 AM 35.4°F1.9°C 24.8°F-4.0°C 65% 14.0 mph ENE22.5 kmh ENE -- 29.57 in1001.4 mb 0.00 in0.0 mm 0.00 in0.0 mm 0.00 in0.0 mm
09:10 AM 35.2°F1.8°C 23.9°F-4.5°C 63% 6.0 mph NE9.7 kmh NE -- 29.57 in1001.4 mb 0.00 in0.0 mm 0.00 in0.0 mm 0.00 in0.0 mm
09:15 AM 35.4°F1.9°C 23.7°F-4.6°C 62% 12.0 mph ENE19.3 kmh ENE 17.0 mph27.4 kmh 29.57 in1001.4 mb 0.00 in0.0 mm 0.00 in0.0 mm 0.00 in0.0 mm
09:20 AM 35.6°F2.0°C 24.3°F-4.3°C 63% 14.0 mph NE22.5 kmh NE -- 29.57 in1001.4 mb 0.00 in0.0 mm 0.00 in0.0 mm 0.00 in0.0 mm
09:25 AM 35.4°F1.9°C 23.7°F-4.6°C 62% 8.0 mph NNE12.9 kmh NNE -- 29.57 in1001.4 mb 0.00 in0.0 mm 0.00 in0.0 mm 0.00 in0.0 mm
09:30 AM 35.5°F1.9°C 23.7°F-4.6°C 62% 10.0 mph NE16.1 kmh NE -- 29.57 in1001.4 mb 0.00 in0.0 mm 0.00 in0.0 mm 0.00 in0.0 mm
09:35 AM 36.1°F2.3°C 24.1°F-4.4°C 61% 7.0 mph ENE11.3 kmh ENE -- 29.57 in1001.4 mb 0.00 in0.0 mm 0.00 in0.0 mm 0.00 in0.0 mm
09:40 AM 36.0°F2.2°C 24.3°F-4.3°C 62% 10.0 mph NE16.1 kmh NE 15.0 mph24.1 kmh 29.57 in1001.4 mb 0.00 in0.0 mm 0.00 in0.0 mm 0.00 in0.0 mm
09:45 AM 35.9°F2.2°C 23.9°F-4.5°C 61% 7.0 mph NE11.3 kmh NE -- 29.57 in1001.4 mb 0.00 in0.0 mm 0.00 in0.0 mm 0.00 in0.0 mm
09:50 AM 36.0°F2.2°C 23.9°F-4.5°C 61% 12.0 mph NE19.3 kmh NE -- 29.57 in1001.4 mb 0.00 in0.0 mm 0.00 in0.0 mm 0.00 in0.0 mm
09:55 AM 35.9°F2.2°C 23.4°F-4.8°C 60% 9.0 mph NE14.5 kmh NE -- 29.57 in1001.4 mb 0.00 in0.0 mm 0.00 in0.0 mm 0.00 in0.0 mm
10:00 AM 35.8°F2.1°C 23.4°F-4.8°C 60% 11.0 mph NNE17.7 kmh NNE -- 29.57 in1001.4 mb 0.00 in0.0 mm 0.00 in0.0 mm 0.00 in0.0 mm
10:05 AM 35.9°F2.2°C 23.4°F-4.8°C 60% 11.0 mph NE17.7 kmh NE 16.0 mph25.7 kmh 29.57 in1001.4 mb 0.00 in0.0 mm 0.00 in0.0 mm 0.00 in0.0 mm
10:10 AM 36.3°F2.4°C 23.4°F-4.8°C 59% 10.0 mph NE16.1 kmh NE -- 29.57 in1001.4 mb 0.00 in0.0 mm 0.00 in0.0 mm 0.00 in0.0 mm
10:15 AM 36.2°F2.3°C 21.9°F-5.6°C 56% 7.0 mph NE11.3 kmh NE -- 29.57 in1001.4 mb 0.00 in0.0 mm 0.00 in0.0 mm 0.00 in0.0 mm
10:20 AM 36.0°F2.2°C 21.4°F-5.9°C 55% 11.0 mph NNE17.7 kmh NNE -- 29.57 in1001.4 mb 0.00 in0.0 mm 0.00 in0.0 mm 0.00 in0.0 mm
10:25 AM 36.1°F2.3°C 21.9°F-5.6°C 56% 8.0 mph NE12.9 kmh NE -- 29.58 in1001.7 mb 0.00 in0.0 mm 0.00 in0.0 mm 0.00 in0.0 mm
10:30 AM 36.2°F2.3°C 22.5°F-5.3°C 57% 12.0 mph ENE19.3 kmh ENE 15.0 mph24.1 kmh 29.57 in1001.4 mb 0.00 in0.0 mm 0.00 in0.0 mm 0.00 in0.0 mm
10:35 AM 36.2°F2.3°C 22.8°F-5.1°C 58% 9.0 mph NE14.5 kmh NE -- 29.57 in1001.4 mb 0.00 in0.0 mm 0.00 in0.0 mm 0.00 in0.0 mm
10:40 AM 35.9°F2.2°C 21.7°F-5.7°C 56% 3.0 mph ENE4.8 kmh ENE -- 29.58 in1001.7 mb 0.00 in0.0 mm 0.00 in0.0 mm 0.00 in0.0 mm
10:45 AM 36.3°F2.4°C 21.7°F-5.7°C 55% 10.0 mph NE16.1 kmh NE -- 29.58 in1001.7 mb 0.00 in0.0 mm 0.00 in0.0 mm 0.00 in0.0 mm
10:50 AM 36.2°F2.3°C 21.9°F-5.6°C 56% 7.0 mph NE11.3 kmh NE -- 29.58 in1001.7 mb 0.00 in0.0 mm 0.00 in0.0 mm 0.00 in0.0 mm
10:55 AM 36.2°F2.3°C 21.9°F-5.6°C 56% 13.0 mph NE20.9 kmh NE 18.0 mph29.0 kmh 29.58 in1001.7 mb 0.00 in0.0 mm 0.00 in0.0 mm 0.00 in0.0 mm
11:00 AM 36.2°F2.3°C 21.9°F-5.6°C 56% 10.0 mph ENE16.1 kmh ENE -- 29.58 in1001.7 mb 0.00 in0.0 mm 0.00 in0.0 mm 0.00 in0.0 mm
11:05 AM 36.3°F2.4°C 21.7°F-5.7°C 55% 7.0 mph NE11.3 kmh NE -- 29.58 in1001.7 mb 0.00 in0.0 mm 0.00 in0.0 mm 0.00 in0.0 mm
11:10 AM 36.1°F2.3°C 21.9°F-5.6°C 56% 10.0 mph NNE16.1 kmh NNE -- 29.58 in1001.7 mb 0.00 in0.0 mm 0.00 in0.0 mm 0.00 in0.0 mm
11:15 AM 36.6°F2.6°C 22.5°F-5.3°C 56% 13.0 mph NE20.9 kmh NE -- 29.58 in1001.7 mb 0.00 in0.0 mm 0.00 in0.0 mm 0.00 in0.0 mm
11:20 AM 36.5°F2.5°C 22.3°F-5.4°C 56% 11.0 mph NE17.7 kmh NE 16.0 mph25.7 kmh 29.58 in1001.7 mb 0.00 in0.0 mm 0.00 in0.0 mm 0.00 in0.0 mm
11:25 AM 36.2°F2.3°C 21.6°F-5.8°C 55% 10.0 mph NNE16.1 kmh NNE -- 29.59 in1002.0 mb 0.00 in0.0 mm 0.00 in0.0 mm 0.00 in0.0 mm
11:30 AM 35.9°F2.2°C 21.4°F-5.9°C 55% 7.0 mph ENE11.3 kmh ENE -- 29.59 in1002.0 mb 0.00 in0.0 mm 0.00 in0.0 mm 0.00 in0.0 mm
11:35 AM 35.3°F1.8°C 19.8°F-6.8°C 53% 11.0 mph NE17.7 kmh NE -- 29.59 in1002.0 mb 0.00 in0.0 mm 0.00 in0.0 mm 0.00 in0.0 mm
11:40 AM 35.4°F1.9°C 20.5°F-6.4°C 54% 12.0 mph ENE19.3 kmh ENE -- 29.59 in1002.0 mb 0.00 in0.0 mm 0.00 in0.0 mm 0.00 in0.0 mm
11:45 AM 35.3°F1.8°C 21.2°F-6.0°C 56% 11.0 mph ENE17.7 kmh ENE 15.0 mph24.1 kmh 29.59 in1002.0 mb 0.00 in0.0 mm 0.00 in0.0 mm 0.00 in0.0 mm
11:50 AM 35.4°F1.9°C 20.8°F-6.2°C 55% 9.0 mph NNE14.5 kmh NNE -- 29.59 in1002.0 mb 0.00 in0.0 mm 0.00 in0.0 mm 0.00 in0.0 mm
11:55 AM 35.5°F1.9°C 21.4°F-5.9°C 56% 7.0 mph ENE11.3 kmh ENE -- 29.59 in1002.0 mb 0.00 in0.0 mm 0.00 in0.0 mm 0.00 in0.0 mm
12:00 PM 35.9°F2.2°C 21.0°F-6.1°C 54% 10.0 mph NE16.1 kmh NE -- 29.59 in1002.0 mb 0.00 in0.0 mm 0.00 in0.0 mm 0.00 in0.0 mm
12:05 PM 35.7°F2.1°C 20.8°F-6.2°C 54% 10.0 mph NE16.1 kmh NE -- 29.59 in1002.0 mb 0.00 in0.0 mm 0.00 in0.0 mm 0.00 in0.0 mm
12:10 PM 35.7°F2.1°C 20.3°F-6.5°C 53% 9.0 mph NE14.5 kmh NE 15.0 mph24.1 kmh 29.59 in1002.0 mb 0.00 in0.0 mm 0.00 in0.0 mm 0.00 in0.0 mm
12:15 PM 35.6°F2.0°C 20.7°F-6.3°C 54% 12.0 mph NE19.3 kmh NE -- 29.59 in1002.0 mb 0.00 in0.0 mm 0.00 in0.0 mm 0.00 in0.0 mm
12:20 PM 35.6°F2.0°C 20.1°F-6.6°C 53% 13.0 mph NE20.9 kmh NE -- 29.59 in1002.0 mb 0.00 in0.0 mm 0.00 in0.0 mm 0.00 in0.0 mm
12:25 PM 36.1°F2.3°C 20.7°F-6.3°C 53% 8.0 mph NE12.9 kmh NE -- 29.59 in1002.0 mb 0.00 in0.0 mm 0.00 in0.0 mm 0.00 in0.0 mm
12:30 PM 36.1°F2.3°C 21.2°F-6.0°C 54% 6.0 mph NE9.7 kmh NE -- 29.59 in1002.0 mb 0.00 in0.0 mm 0.00 in0.0 mm 0.00 in0.0 mm
12:35 PM 36.2°F2.3°C 21.2°F-6.0°C 54% 11.0 mph NE17.7 kmh NE 18.0 mph29.0 kmh 29.59 in1002.0 mb 0.00 in0.0 mm 0.00 in0.0 mm 0.00 in0.0 mm
12:40 PM 36.1°F2.3°C 19.4°F-7.0°C 50% 12.0 mph NE19.3 kmh NE -- 29.59 in1002.0 mb 0.00 in0.0 mm 0.00 in0.0 mm 0.00 in0.0 mm
12:45 PM 35.9°F2.2°C 19.2°F-7.1°C 50% 6.0 mph NE9.7 kmh NE -- 29.59 in1002.0 mb 0.00 in0.0 mm 0.00 in0.0 mm 0.00 in0.0 mm
12:50 PM 35.9°F2.2°C 19.2°F-7.1°C 50% 10.0 mph NE16.1 kmh NE -- 29.59 in1002.0 mb 0.00 in0.0 mm 0.00 in0.0 mm 0.00 in0.0 mm
12:55 PM 35.9°F2.2°C 19.6°F-6.9°C 51% 10.0 mph NNE16.1 kmh NNE -- 29.59 in1002.0 mb 0.00 in0.0 mm 0.00 in0.0 mm 0.00 in0.0 mm
01:00 PM 35.9°F2.2°C 20.5°F-6.4°C 53% 10.0 mph NE16.1 kmh NE 16.0 mph25.7 kmh 29.59 in1002.0 mb 0.00 in0.0 mm 0.00 in0.0 mm 0.00 in0.0 mm
01:05 PM 35.7°F2.1°C 20.3°F-6.5°C 53% 6.0 mph NE9.7 kmh NE -- 29.59 in1002.0 mb 0.00 in0.0 mm 0.00 in0.0 mm 0.00 in0.0 mm
01:10 PM 35.6°F2.0°C 20.7°F-6.3°C 54% 4.0 mph E6.4 kmh E -- 29.60 in1002.4 mb 0.00 in0.0 mm 0.00 in0.0 mm 0.00 in0.0 mm
01:15 PM 35.9°F2.2°C 20.1°F-6.6°C 52% 7.0 mph ENE11.3 kmh ENE -- 29.60 in1002.4 mb 0.00 in0.0 mm 0.00 in0.0 mm 0.00 in0.0 mm
01:20 PM 35.6°F2.0°C 19.8°F-6.8°C 52% 6.0 mph NE9.7 kmh NE -- 29.60 in1002.4 mb 0.00 in0.0 mm 0.00 in0.0 mm 0.00 in0.0 mm
01:25 PM 35.5°F1.9°C 20.8°F-6.2°C 55% 6.0 mph E9.7 kmh E 14.0 mph22.5 kmh 29.60 in1002.4 mb 0.00 in0.0 mm 0.00 in0.0 mm 0.00 in0.0 mm
01:30 PM 35.5°F1.9°C 20.5°F-6.4°C 54% 5.0 mph E8.0 kmh E -- 29.60 in1002.4 mb 0.00 in0.0 mm 0.00 in0.0 mm 0.00 in0.0 mm
01:35 PM 35.8°F2.1°C 21.2°F-6.0°C 55% 4.0 mph ENE6.4 kmh ENE -- 29.60 in1002.4 mb 0.00 in0.0 mm 0.00 in0.0 mm 0.00 in0.0 mm
01:40 PM 35.6°F2.0°C 20.7°F-6.3°C 54% 7.0 mph ENE11.3 kmh ENE -- 29.60 in1002.4 mb 0.00 in0.0 mm 0.00 in0.0 mm 0.00 in0.0 mm
01:45 PM 35.3°F1.8°C 20.3°F-6.5°C 54% 3.0 mph NE4.8 kmh NE -- 29.60 in1002.4 mb 0.00 in0.0 mm 0.00 in0.0 mm 0.00 in0.0 mm
01:50 PM 35.3°F1.8°C 20.7°F-6.3°C 55% 3.0 mph ENE4.8 kmh ENE 12.0 mph19.3 kmh 29.60 in1002.4 mb 0.00 in0.0 mm 0.00 in0.0 mm 0.00 in0.0 mm
01:55 PM 35.3°F1.8°C 20.3°F-6.5°C 54% 5.0 mph NE8.0 kmh NE -- 29.60 in1002.4 mb 0.00 in0.0 mm 0.00 in0.0 mm 0.00 in0.0 mm
02:00 PM 35.4°F1.9°C 19.9°F-6.7°C 53% 5.0 mph NE8.0 kmh NE -- 29.60 in1002.4 mb 0.00 in0.0 mm 0.00 in0.0 mm 0.00 in0.0 mm
02:05 PM 35.6°F2.0°C 21.6°F-5.8°C 56% 12.0 mph ENE19.3 kmh ENE -- 29.60 in1002.4 mb 0.00 in0.0 mm 0.00 in0.0 mm 0.00 in0.0 mm
02:10 PM 35.4°F1.9°C 21.7°F-5.7°C 57% 8.0 mph ENE12.9 kmh ENE -- 29.60 in1002.4 mb 0.00 in0.0 mm 0.00 in0.0 mm 0.00 in0.0 mm
02:15 PM 35.0°F1.7°C 21.4°F-5.9°C 57% 5.0 mph ESE8.0 kmh ESE 15.0 mph24.1 kmh 29.61 in1002.7 mb 0.00 in0.0 mm 0.00 in0.0 mm 0.00 in0.0 mm
02:20 PM 34.9°F1.6°C 21.2°F-6.0°C 57% 4.0 mph ENE6.4 kmh ENE -- 29.61 in1002.7 mb 0.00 in0.0 mm 0.00 in0.0 mm 0.00 in0.0 mm
02:25 PM 34.9°F1.6°C 20.3°F-6.5°C 55% 7.0 mph NE11.3 kmh NE -- 29.61 in1002.7 mb 0.00 in0.0 mm 0.00 in0.0 mm 0.00 in0.0 mm
02:30 PM 35.2°F1.8°C 19.4°F-7.0°C 52% 6.0 mph ENE9.7 kmh ENE -- 29.61 in1002.7 mb 0.00 in0.0 mm 0.00 in0.0 mm 0.00 in0.0 mm
02:35 PM 35.1°F1.7°C 18.3°F-7.6°C 50% 11.0 mph NE17.7 kmh NE -- 29.61 in1002.7 mb 0.00 in0.0 mm 0.00 in0.0 mm 0.00 in0.0 mm
02:40 PM 35.1°F1.7°C 19.2°F-7.1°C 52% 10.0 mph NE16.1 kmh NE 12.0 mph19.3 kmh 29.61 in1002.7 mb 0.00 in0.0 mm 0.00 in0.0 mm 0.00 in0.0 mm
02:45 PM 35.5°F1.9°C 20.5°F-6.4°C 54% 4.0 mph ENE6.4 kmh ENE -- 29.61 in1002.7 mb 0.00 in0.0 mm 0.00 in0.0 mm 0.00 in0.0 mm
02:50 PM 35.8°F2.1°C 19.9°F-6.7°C 52% 6.0 mph E9.7 kmh E -- 29.61 in1002.7 mb 0.00 in0.0 mm 0.00 in0.0 mm 0.00 in0.0 mm
02:55 PM 35.8°F2.1°C 19.4°F-7.0°C 51% 6.0 mph E9.7 kmh E -- 29.61 in1002.7 mb 0.00 in0.0 mm 0.00 in0.0 mm 0.00 in0.0 mm
03:00 PM 35.8°F2.1°C 19.0°F-7.2°C 50% 12.0 mph E19.3 kmh E -- 29.61 in1002.7 mb 0.00 in0.0 mm 0.00 in0.0 mm 0.00 in0.0 mm
03:05 PM 35.8°F2.1°C 19.0°F-7.2°C 50% 4.0 mph NE6.4 kmh NE 15.0 mph24.1 kmh 29.61 in1002.7 mb 0.00 in0.0 mm 0.00 in0.0 mm 0.00 in0.0 mm
03:10 PM 36.0°F2.2°C 19.2°F-7.1°C 50% 7.0 mph NE11.3 kmh NE -- 29.61 in1002.7 mb 0.00 in0.0 mm 0.00 in0.0 mm 0.00 in0.0 mm
03:15 PM 35.9°F2.2°C 18.7°F-7.4°C 49% 7.0 mph NE11.3 kmh NE -- 29.61 in1002.7 mb 0.00 in0.0 mm 0.00 in0.0 mm 0.00 in0.0 mm
03:20 PM 36.0°F2.2°C 19.2°F-7.1°C 50% 7.0 mph NE11.3 kmh NE -- 29.61 in1002.7 mb 0.00 in0.0 mm 0.00 in0.0 mm 0.00 in0.0 mm
03:25 PM 36.5°F2.5°C 19.6°F-6.9°C 50% 2.0 mph NE3.2 kmh NE -- 29.61 in1002.7 mb 0.00 in0.0 mm 0.00 in0.0 mm 0.00 in0.0 mm
03:30 PM 36.2°F2.3°C 18.9°F-7.3°C 49% 5.0 mph ENE8.0 kmh ENE 11.0 mph17.7 kmh 29.61 in1002.7 mb 0.00 in0.0 mm 0.00 in0.0 mm 0.00 in0.0 mm
03:35 PM 36.1°F2.3°C 18.3°F-7.6°C 48% 11.0 mph NE17.7 kmh NE -- 29.61 in1002.7 mb 0.00 in0.0 mm 0.00 in0.0 mm 0.00 in0.0 mm
03:40 PM 36.1°F2.3°C 18.0°F-7.8°C 47% 7.0 mph E11.3 kmh E -- 29.61 in1002.7 mb 0.00 in0.0 mm 0.00 in0.0 mm 0.00 in0.0 mm
03:45 PM 36.2°F2.3°C 17.4°F-8.1°C 46% 5.0 mph ENE8.0 kmh ENE -- 29.61 in1002.7 mb 0.00 in0.0 mm 0.00 in0.0 mm 0.00 in0.0 mm
03:50 PM 36.2°F2.3°C 16.9°F-8.4°C 45% 6.0 mph ENE9.7 kmh ENE -- 29.61 in1002.7 mb 0.00 in0.0 mm 0.00 in0.0 mm 0.00 in0.0 mm
03:55 PM 36.1°F2.3°C 17.4°F-8.1°C 46% 10.0 mph ENE16.1 kmh ENE 11.0 mph17.7 kmh 29.61 in1002.7 mb 0.00 in0.0 mm 0.00 in0.0 mm 0.00 in0.0 mm
04:00 PM 36.0°F2.2°C 16.7°F-8.5°C 45% 7.0 mph ENE11.3 kmh ENE -- 29.61 in1002.7 mb 0.00 in0.0 mm 0.00 in0.0 mm 0.00 in0.0 mm
04:05 PM 36.2°F2.3°C 17.4°F-8.1°C 46% 10.0 mph E16.1 kmh E -- 29.61 in1002.7 mb 0.00 in0.0 mm 0.00 in0.0 mm 0.00 in0.0 mm
04:10 PM 36.5°F2.5°C 16.7°F-8.5°C 44% 11.0 mph NNE17.7 kmh NNE -- 29.61 in1002.7 mb 0.00 in0.0 mm 0.00 in0.0 mm 0.00 in0.0 mm
04:15 PM 36.1°F2.3°C 17.4°F-8.1°C 46% 9.0 mph NE14.5 kmh NE -- 29.61 in1002.7 mb 0.00 in0.0 mm 0.00 in0.0 mm 0.00 in0.0 mm
04:20 PM 36.3°F2.4°C 18.5°F-7.5°C 48% 11.0 mph NE17.7 kmh NE 18.0 mph29.0 kmh 29.61 in1002.7 mb 0.00 in0.0 mm 0.00 in0.0 mm 0.00 in0.0 mm
04:25 PM 36.2°F2.3°C 17.4°F-8.1°C 46% 7.0 mph NE11.3 kmh NE -- 29.61 in1002.7 mb 0.00 in0.0 mm 0.00 in0.0 mm 0.00 in0.0 mm
04:30 PM 36.4°F2.4°C 19.0°F-7.2°C 49% 16.0 mph NE25.7 kmh NE -- 29.61 in1002.7 mb 0.00 in0.0 mm 0.00 in0.0 mm 0.00 in0.0 mm
04:35 PM 36.4°F2.4°C 19.9°F-6.7°C 51% 11.0 mph NE17.7 kmh NE -- 29.62 in1003.0 mb 0.00 in0.0 mm 0.00 in0.0 mm 0.00 in0.0 mm
04:40 PM 36.3°F2.4°C 23.7°F-4.6°C 60% 14.0 mph NE22.5 kmh NE -- 29.62 in1003.0 mb 0.00 in0.0 mm 0.00 in0.0 mm 0.00 in0.0 mm
04:45 PM 36.0°F2.2°C 23.9°F-4.5°C 61% 13.0 mph NE20.9 kmh NE 19.0 mph30.6 kmh 29.62 in1003.0 mb 0.00 in0.0 mm 0.00 in0.0 mm 0.00 in0.0 mm
04:50 PM 35.9°F2.2°C 22.3°F-5.4°C 57% 11.0 mph NE17.7 kmh NE -- 29.62 in1003.0 mb 0.00 in0.0 mm 0.00 in0.0 mm 0.00 in0.0 mm
04:55 PM 35.7°F2.1°C 24.4°F-4.2°C 63% 9.0 mph NE14.5 kmh NE -- 29.62 in1003.0 mb 0.00 in0.0 mm 0.00 in0.0 mm 0.00 in0.0 mm
05:00 PM 35.5°F1.9°C 25.5°F-3.6°C 67% 15.0 mph ENE24.1 kmh ENE -- 29.62 in1003.0 mb 0.00 in0.0 mm 0.00 in0.0 mm 0.00 in0.0 mm
05:05 PM 35.3°F1.8°C 25.7°F-3.5°C 68% 8.0 mph ENE12.9 kmh ENE -- 29.62 in1003.0 mb 0.00 in0.0 mm 0.00 in0.0 mm 0.00 in0.0 mm
05:10 PM 35.2°F1.8°C 25.0°F-3.9°C 66% 10.0 mph ENE16.1 kmh ENE 18.0 mph29.0 kmh 29.62 in1003.0 mb 0.00 in0.0 mm 0.00 in0.0 mm 0.00 in0.0 mm
05:15 PM 35.3°F1.8°C 23.9°F-4.5°C 63% 14.0 mph NNE22.5 kmh NNE -- 29.62 in1003.0 mb 0.00 in0.0 mm 0.00 in0.0 mm 0.00 in0.0 mm
05:20 PM 35.5°F1.9°C 23.7°F-4.6°C 62% 17.0 mph NE27.4 kmh NE -- 29.62 in1003.0 mb 0.00 in0.0 mm 0.00 in0.0 mm 0.00 in0.0 mm
05:25 PM 35.5°F1.9°C 23.4°F-4.8°C 61% 14.0 mph NE22.5 kmh NE -- 29.62 in1003.0 mb 0.00 in0.0 mm 0.00 in0.0 mm 0.00 in0.0 mm
05:30 PM 35.5°F1.9°C 22.5°F-5.3°C 59% 12.0 mph NE19.3 kmh NE -- 29.62 in1003.0 mb 0.00 in0.0 mm 0.00 in0.0 mm 0.00 in0.0 mm
05:35 PM 35.4°F1.9°C 22.1°F-5.5°C 58% 5.0 mph NE8.0 kmh NE 21.0 mph33.8 kmh 29.62 in1003.0 mb 0.00 in0.0 mm 0.00 in0.0 mm 0.00 in0.0 mm
05:40 PM 35.4°F1.9°C 22.5°F-5.3°C 59% 8.0 mph NE12.9 kmh NE -- 29.63 in1003.4 mb 0.00 in0.0 mm 0.00 in0.0 mm 0.00 in0.0 mm
05:45 PM 35.3°F1.8°C 22.3°F-5.4°C 59% 13.0 mph ENE20.9 kmh ENE -- 29.63 in1003.4 mb 0.00 in0.0 mm 0.00 in0.0 mm 0.00 in0.0 mm
05:50 PM 35.5°F1.9°C 23.7°F-4.6°C 62% 10.0 mph NE16.1 kmh NE -- 29.63 in1003.4 mb 0.00 in0.0 mm 0.00 in0.0 mm 0.00 in0.0 mm
05:55 PM 35.7°F2.1°C 24.1°F-4.4°C 62% 15.0 mph NE24.1 kmh NE -- 29.63 in1003.4 mb 0.00 in0.0 mm 0.00 in0.0 mm 0.00 in0.0 mm
06:00 PM 35.2°F1.8°C 25.0°F-3.9°C 66% 18.0 mph ENE29.0 kmh ENE 22.0 mph35.4 kmh 29.63 in1003.4 mb 0.00 in0.0 mm 0.00 in0.0 mm 0.00 in0.0 mm
06:05 PM 34.8°F1.6°C 25.0°F-3.9°C 67% 14.0 mph NE22.5 kmh NE -- 29.63 in1003.4 mb 0.00 in0.0 mm 0.00 in0.0 mm 0.00 in0.0 mm
06:10 PM 35.0°F1.7°C 25.9°F-3.4°C 69% 10.0 mph ENE16.1 kmh ENE -- 29.63 in1003.4 mb 0.00 in0.0 mm 0.00 in0.0 mm 0.00 in0.0 mm
06:15 PM 35.1°F1.7°C 24.8°F-4.0°C 66% 12.0 mph ENE19.3 kmh ENE -- 29.63 in1003.4 mb 0.00 in0.0 mm 0.00 in0.0 mm 0.00 in0.0 mm
06:20 PM 35.0°F1.7°C 23.4°F-4.8°C 62% 10.0 mph NNE16.1 kmh NNE -- 29.63 in1003.4 mb 0.00 in0.0 mm 0.00 in0.0 mm 0.00 in0.0 mm
06:25 PM 35.0°F1.7°C 23.4°F-4.8°C 62% 10.0 mph ENE16.1 kmh ENE 18.0 mph29.0 kmh 29.63 in1003.4 mb 0.00 in0.0 mm 0.00 in0.0 mm 0.00 in0.0 mm
06:30 PM 35.1°F1.7°C 22.6°F-5.2°C 60% 9.0 mph NE14.5 kmh NE -- 29.63 in1003.4 mb 0.00 in0.0 mm 0.00 in0.0 mm 0.00 in0.0 mm
06:35 PM 35.0°F1.7°C 23.0°F-5.0°C 61% 14.0 mph NE22.5 kmh NE -- 29.64 in1003.7 mb 0.00 in0.0 mm 0.00 in0.0 mm 0.00 in0.0 mm
06:40 PM 34.8°F1.6°C 23.2°F-4.9°C 62% 14.0 mph NE22.5 kmh NE -- 29.64 in1003.7 mb 0.00 in0.0 mm 0.00 in0.0 mm 0.00 in0.0 mm
06:45 PM 34.8°F1.6°C 23.2°F-4.9°C 62% 15.0 mph ENE24.1 kmh ENE -- 29.64 in1003.7 mb 0.00 in0.0 mm 0.00 in0.0 mm 0.00 in0.0 mm
06:50 PM 34.9°F1.6°C 22.5°F-5.3°C 60% 14.0 mph NE22.5 kmh NE 20.0 mph32.2 kmh 29.64 in1003.7 mb 0.00 in0.0 mm 0.00 in0.0 mm 0.00 in0.0 mm
06:55 PM 34.9°F1.6°C 22.8°F-5.1°C 61% 12.0 mph NE19.3 kmh NE -- 29.64 in1003.7 mb 0.00 in0.0 mm 0.00 in0.0 mm 0.00 in0.0 mm
07:00 PM 34.9°F1.6°C 23.5°F-4.7°C 63% 15.0 mph ENE24.1 kmh ENE -- 29.64 in1003.7 mb 0.00 in0.0 mm 0.00 in0.0 mm 0.00 in0.0 mm
07:05 PM 34.8°F1.6°C 23.2°F-4.9°C 62% 14.0 mph NE22.5 kmh NE -- 29.64 in1003.7 mb 0.00 in0.0 mm 0.00 in0.0 mm 0.00 in0.0 mm
07:10 PM 34.9°F1.6°C 23.2°F-4.9°C 62% 18.0 mph NE29.0 kmh NE -- 29.64 in1003.7 mb 0.00 in0.0 mm 0.00 in0.0 mm 0.00 in0.0 mm
07:15 PM 34.8°F1.6°C 22.8°F-5.1°C 61% 17.0 mph ENE27.4 kmh ENE 20.0 mph32.2 kmh 29.64 in1003.7 mb 0.00 in0.0 mm 0.00 in0.0 mm 0.00 in0.0 mm
07:20 PM 34.8°F1.6°C 22.8°F-5.1°C 61% 13.0 mph NE20.9 kmh NE -- 29.64 in1003.7 mb 0.00 in0.0 mm 0.00 in0.0 mm 0.00 in0.0 mm
07:25 PM 34.6°F1.4°C 22.5°F-5.3°C 61% 17.0 mph NE27.4 kmh NE -- 29.64 in1003.7 mb 0.00 in0.0 mm 0.00 in0.0 mm 0.00 in0.0 mm
07:30 PM 34.6°F1.4°C 23.9°F-4.5°C 65% 15.0 mph NE24.1 kmh NE -- 29.65 in1004.1 mb 0.00 in0.0 mm 0.00 in0.0 mm 0.00 in0.0 mm
07:35 PM 34.7°F1.5°C 23.0°F-5.0°C 62% 11.0 mph NE17.7 kmh NE -- 29.64 in1003.7 mb 0.00 in0.0 mm 0.00 in0.0 mm 0.00 in0.0 mm
07:40 PM 34.8°F1.6°C 23.2°F-4.9°C 62% 8.0 mph NE12.9 kmh NE 20.0 mph32.2 kmh 29.64 in1003.7 mb 0.00 in0.0 mm 0.00 in0.0 mm 0.00 in0.0 mm
07:45 PM 34.8°F1.6°C 22.8°F-5.1°C 61% 20.0 mph NE32.2 kmh NE -- 29.64 in1003.7 mb 0.00 in0.0 mm 0.00 in0.0 mm 0.00 in0.0 mm
07:50 PM 34.7°F1.5°C 24.1°F-4.4°C 65% 16.0 mph NE25.7 kmh NE -- 29.64 in1003.7 mb 0.00 in0.0 mm 0.00 in0.0 mm 0.00 in0.0 mm
07:55 PM 34.7°F1.5°C 23.7°F-4.6°C 64% 19.0 mph NE30.6 kmh NE -- 29.65 in1004.1 mb 0.00 in0.0 mm 0.00 in0.0 mm 0.00 in0.0 mm
08:00 PM 34.5°F1.4°C 23.9°F-4.5°C 65% 18.0 mph NE29.0 kmh NE -- 29.65 in1004.1 mb 0.00 in0.0 mm 0.00 in0.0 mm 0.00 in0.0 mm
08:05 PM 34.5°F1.4°C 24.3°F-4.3°C 66% 15.0 mph NE24.1 kmh NE 20.0 mph32.2 kmh 29.65 in1004.1 mb 0.00 in0.0 mm 0.00 in0.0 mm 0.00 in0.0 mm
08:10 PM 34.4°F1.3°C 23.4°F-4.8°C 64% 17.0 mph NE27.4 kmh NE -- 29.65 in1004.1 mb 0.00 in0.0 mm 0.00 in0.0 mm 0.00 in0.0 mm
08:15 PM 34.4°F1.3°C 23.9°F-4.5°C 65% 11.0 mph NE17.7 kmh NE -- 29.65 in1004.1 mb 0.00 in0.0 mm 0.00 in0.0 mm 0.00 in0.0 mm
08:20 PM 34.3°F1.3°C 23.0°F-5.0°C 63% 17.0 mph ENE27.4 kmh ENE -- 29.65 in1004.1 mb 0.00 in0.0 mm 0.00 in0.0 mm 0.00 in0.0 mm
08:25 PM 34.2°F1.2°C 22.5°F-5.3°C 62% 17.0 mph ENE27.4 kmh ENE -- 29.66 in1004.4 mb 0.00 in0.0 mm 0.00 in0.0 mm 0.00 in0.0 mm
08:30 PM 34.2°F1.2°C 22.8°F-5.1°C 63% 11.0 mph E17.7 kmh E 22.0 mph35.4 kmh 29.66 in1004.4 mb 0.00 in0.0 mm 0.00 in0.0 mm 0.00 in0.0 mm
08:35 PM 34.2°F1.2°C 23.4°F-4.8°C 64% 9.0 mph NE14.5 kmh NE -- 29.66 in1004.4 mb 0.00 in0.0 mm 0.00 in0.0 mm 0.00 in0.0 mm
08:40 PM 34.2°F1.2°C 22.5°F-5.3°C 62% 12.0 mph ENE19.3 kmh ENE -- 29.66 in1004.4 mb 0.00 in0.0 mm 0.00 in0.0 mm 0.00 in0.0 mm
08:45 PM 34.1°F1.2°C 23.4°F-4.8°C 64% 6.0 mph NE9.7 kmh NE -- 29.66 in1004.4 mb 0.00 in0.0 mm 0.00 in0.0 mm 0.00 in0.0 mm
08:50 PM 34.2°F1.2°C 23.4°F-4.8°C 64% 9.0 mph NE14.5 kmh NE -- 29.66 in1004.4 mb 0.00 in0.0 mm 0.00 in0.0 mm 0.00 in0.0 mm
08:55 PM 34.3°F1.3°C 22.6°F-5.2°C 62% 15.0 mph NE24.1 kmh NE 18.0 mph29.0 kmh 29.66 in1004.4 mb 0.00 in0.0 mm 0.00 in0.0 mm 0.00 in0.0 mm
09:00 PM 34.2°F1.2°C 22.1°F-5.5°C 61% 5.0 mph NE8.0 kmh NE -- 29.66 in1004.4 mb 0.00 in0.0 mm 0.00 in0.0 mm 0.00 in0.0 mm
09:05 PM 34.2°F1.2°C 21.4°F-5.9°C 59% 10.0 mph NE16.1 kmh NE -- 29.66 in1004.4 mb 0.00 in0.0 mm 0.00 in0.0 mm 0.00 in0.0 mm
09:10 PM 34.1°F1.2°C 21.0°F-6.1°C 58% 15.0 mph ENE24.1 kmh ENE -- 29.66 in1004.4 mb 0.00 in0.0 mm 0.00 in0.0 mm 0.00 in0.0 mm
09:15 PM 34.1°F1.2°C 21.4°F-5.9°C 59% 12.0 mph NE19.3 kmh NE -- 29.66 in1004.4 mb 0.00 in0.0 mm 0.00 in0.0 mm 0.00 in0.0 mm
09:20 PM 34.0°F1.1°C 21.2°F-6.0°C 59% 6.0 mph NE9.7 kmh NE 17.0 mph27.4 kmh 29.66 in1004.4 mb 0.00 in0.0 mm 0.00 in0.0 mm 0.00 in0.0 mm
09:25 PM 33.9°F1.1°C 20.3°F-6.5°C 57% 13.0 mph NE20.9 kmh NE -- 29.66 in1004.4 mb 0.00 in0.0 mm 0.00 in0.0 mm 0.00 in0.0 mm
09:30 PM 33.9°F1.1°C 20.3°F-6.5°C 57% 16.0 mph ENE25.7 kmh ENE -- 29.66 in1004.4 mb 0.00 in0.0 mm 0.00 in0.0 mm 0.00 in0.0 mm
09:35 PM 33.8°F1.0°C 20.1°F-6.6°C 57% 20.0 mph ENE32.2 kmh ENE -- 29.66 in1004.4 mb 0.00 in0.0 mm 0.00 in0.0 mm 0.00 in0.0 mm
09:40 PM 33.9°F1.1°C 20.8°F-6.2°C 58% 14.0 mph NE22.5 kmh NE -- 29.66 in1004.4 mb 0.00 in0.0 mm 0.00 in0.0 mm 0.00 in0.0 mm
09:45 PM 34.0°F1.1°C 21.2°F-6.0°C 59% 20.0 mph NE32.2 kmh NE 23.0 mph37.0 kmh 29.66 in1004.4 mb 0.00 in0.0 mm 0.00 in0.0 mm 0.00 in0.0 mm
09:50 PM 34.0°F1.1°C 20.8°F-6.2°C 58% 14.0 mph NE22.5 kmh NE -- 29.66 in1004.4 mb 0.00 in0.0 mm 0.00 in0.0 mm 0.00 in0.0 mm
09:55 PM 33.9°F1.1°C 20.8°F-6.2°C 58% 12.0 mph ENE19.3 kmh ENE -- 29.66 in1004.4 mb 0.00 in0.0 mm 0.00 in0.0 mm 0.00 in0.0 mm
10:00 PM 33.9°F1.1°C 20.8°F-6.2°C 58% 13.0 mph ENE20.9 kmh ENE -- 29.66 in1004.4 mb 0.00 in0.0 mm 0.00 in0.0 mm 0.00 in0.0 mm
10:05 PM 33.9°F1.1°C 21.2°F-6.0°C 59% 14.0 mph NE22.5 kmh NE -- 29.66 in1004.4 mb 0.00 in0.0 mm 0.00 in0.0 mm 0.00 in0.0 mm
10:10 PM 33.8°F1.0°C 21.0°F-6.1°C 59% 11.0 mph NE17.7 kmh NE 19.0 mph30.6 kmh 29.66 in1004.4 mb 0.00 in0.0 mm 0.00 in0.0 mm 0.00 in0.0 mm
10:15 PM 33.9°F1.1°C 20.8°F-6.2°C 58% 12.0 mph NE19.3 kmh NE -- 29.66 in1004.4 mb 0.00 in0.0 mm 0.00 in0.0 mm 0.00 in0.0 mm
10:20 PM 33.7°F0.9°C 20.5°F-6.4°C 58% 10.0 mph NE16.1 kmh NE -- 29.66 in1004.4 mb 0.00 in0.0 mm 0.00 in0.0 mm 0.00 in0.0 mm
10:25 PM 33.8°F1.0°C 21.0°F-6.1°C 59% 10.0 mph N16.1 kmh N -- 29.66 in1004.4 mb 0.00 in0.0 mm 0.00 in0.0 mm 0.00 in0.0 mm
10:30 PM 33.8°F1.0°C 19.8°F-6.8°C 56% 19.0 mph NE30.6 kmh NE -- 29.66 in1004.4 mb 0.00 in0.0 mm 0.00 in0.0 mm 0.00 in0.0 mm
10:35 PM 33.8°F1.0°C 23.4°F-4.8°C 65% 13.0 mph ENE20.9 kmh ENE 21.0 mph33.8 kmh 29.66 in1004.4 mb 0.00 in0.0 mm 0.00 in0.0 mm 0.00 in0.0 mm
10:40 PM 33.7°F0.9°C 23.2°F-4.9°C 65% 13.0 mph NE20.9 kmh NE -- 29.66 in1004.4 mb 0.00 in0.0 mm 0.00 in0.0 mm 0.00 in0.0 mm
10:45 PM 33.6°F0.9°C 23.5°F-4.7°C 66% 12.0 mph NE19.3 kmh NE -- 29.66 in1004.4 mb 0.00 in0.0 mm 0.00 in0.0 mm 0.00 in0.0 mm
10:50 PM 33.5°F0.8°C 23.0°F-5.0°C 65% 11.0 mph NE17.7 kmh NE -- 29.67 in1004.7 mb 0.00 in0.0 mm 0.00 in0.0 mm 0.00 in0.0 mm
10:55 PM 33.4°F0.8°C 23.4°F-4.8°C 66% 12.0 mph NE19.3 kmh NE -- 29.67 in1004.7 mb 0.00 in0.0 mm 0.00 in0.0 mm 0.00 in0.0 mm
11:00 PM 33.4°F0.8°C 23.4°F-4.8°C 66% 12.0 mph NE19.3 kmh NE 21.0 mph33.8 kmh 29.67 in1004.7 mb 0.00 in0.0 mm 0.00 in0.0 mm 0.00 in0.0 mm
11:05 PM 33.4°F0.8°C 23.0°F-5.0°C 65% 4.0 mph NE6.4 kmh NE -- 29.67 in1004.7 mb 0.00 in0.0 mm 0.00 in0.0 mm 0.00 in0.0 mm
11:10 PM 33.4°F0.8°C 23.4°F-4.8°C 66% 13.0 mph E20.9 kmh E -- 29.67 in1004.7 mb 0.00 in0.0 mm 0.00 in0.0 mm 0.00 in0.0 mm
11:15 PM 33.5°F0.8°C 23.7°F-4.6°C 67% 14.0 mph NE22.5 kmh NE -- 29.67 in1004.7 mb 0.00 in0.0 mm 0.00 in0.0 mm 0.00 in0.0 mm
11:20 PM 33.4°F0.8°C 23.0°F-5.0°C 65% 8.0 mph NE12.9 kmh NE -- 29.67 in1004.7 mb 0.00 in0.0 mm 0.00 in0.0 mm 0.00 in0.0 mm
11:25 PM 33.4°F0.8°C 23.0°F-5.0°C 65% 21.0 mph ENE33.8 kmh ENE 25.0 mph40.2 kmh 29.67 in1004.7 mb 0.00 in0.0 mm 0.00 in0.0 mm 0.00 in0.0 mm
11:30 PM 33.3°F0.7°C 23.5°F-4.7°C 67% 13.0 mph NE20.9 kmh NE -- 29.67 in1004.7 mb 0.00 in0.0 mm 0.00 in0.0 mm 0.00 in0.0 mm
11:35 PM 33.3°F0.7°C 23.9°F-4.5°C 68% 19.0 mph ENE30.6 kmh ENE -- 29.67 in1004.7 mb 0.00 in0.0 mm 0.00 in0.0 mm 0.00 in0.0 mm
11:40 PM 33.3°F0.7°C 23.5°F-4.7°C 67% 12.0 mph NE19.3 kmh NE -- 29.67 in1004.7 mb 0.00 in0.0 mm 0.00 in0.0 mm 0.00 in0.0 mm
11:45 PM 33.1°F0.6°C 21.9°F-5.6°C 63% 18.0 mph NE29.0 kmh NE -- 29.68 in1005.1 mb 0.00 in0.0 mm 0.00 in0.0 mm 0.00 in0.0 mm
11:50 PM 33.0°F0.6°C 21.9°F-5.6°C 63% 12.0 mph NE19.3 kmh NE 21.0 mph33.8 kmh 29.67 in1004.7 mb 0.00 in0.0 mm 0.00 in0.0 mm 0.00 in0.0 mm
11:55 PM 33.0°F0.6°C 22.6°F-5.2°C 65% 12.0 mph NE19.3 kmh NE -- 29.67 in1004.7 mb 0.00 in0.0 mm 0.00 in0.0 mm 0.00 in0.0 mm